createdAt,value
2023-04-11T00:02:35.578Z,8.35
2023-04-11T00:05:21.869Z,8.39
2023-04-11T00:08:07.887Z,8.48
2023-04-11T00:10:56.855Z,8.49
2023-04-11T00:13:43.408Z,8.49
2023-04-11T00:16:34.144Z,8.43
2023-04-11T00:19:28.623Z,8.49
2023-04-11T00:22:22.828Z,8.39
2023-04-11T00:25:27.101Z,8.45
2023-04-11T00:28:13.470Z,8.45
2023-04-11T00:30:59.638Z,8.36
2023-04-11T00:33:47.086Z,8.40
2023-04-11T00:36:33.200Z,8.39
2023-04-11T00:39:20.432Z,8.40
2023-04-11T00:42:08.009Z,8.43
2023-04-11T00:44:54.100Z,8.43
2023-04-11T00:47:39.720Z,8.41
2023-04-11T00:50:25.581Z,8.28
2023-04-11T00:53:12.862Z,8.34
2023-04-11T00:56:00.243Z,8.27
2023-04-11T00:58:46.464Z,8.25
2023-04-11T01:01:46.774Z,8.25
2023-04-11T01:04:33.567Z,8.03
2023-04-11T01:07:20.359Z,8.21
2023-04-11T01:10:06.997Z,8.14
2023-04-11T01:12:53.423Z,8.15
2023-04-11T01:15:39.565Z,8.07
2023-04-11T01:18:26.798Z,8.08
2023-04-11T01:21:13.163Z,7.96
2023-04-11T01:24:03.753Z,8.00
2023-04-11T01:26:50.117Z,7.93
2023-04-11T01:29:36.600Z,7.96
2023-04-11T01:32:22.420Z,7.93
2023-04-11T01:35:09.101Z,7.94
2023-04-11T01:37:55.130Z,7.91
2023-04-11T01:40:41.867Z,7.89
2023-04-11T01:43:27.816Z,7.89
2023-04-11T01:46:14.168Z,7.87
2023-04-11T01:49:03.556Z,7.84
2023-04-11T01:51:49.588Z,7.84
2023-04-11T01:54:35.102Z,7.77
2023-04-11T01:57:21.055Z,7.76
2023-04-11T02:00:13.481Z,7.72
2023-04-11T02:03:02.766Z,7.74
2023-04-11T02:05:48.654Z,7.72
2023-04-11T02:08:34.623Z,7.71
2023-04-11T02:11:20.670Z,7.69
2023-04-11T02:14:09.964Z,7.70
2023-04-11T02:16:56.989Z,7.68
2023-04-11T02:19:45.464Z,7.63
2023-04-11T02:22:31.808Z,7.67
2023-04-11T02:25:17.925Z,7.61
2023-04-11T02:28:04.558Z,7.62
2023-04-11T02:30:51.892Z,7.57
2023-04-11T02:33:37.534Z,7.53
2023-04-11T02:36:23.318Z,7.52
2023-04-11T02:39:09.521Z,7.45
2023-04-11T02:41:55.627Z,7.52
2023-04-11T02:44:41.750Z,7.47
2023-04-11T02:47:27.681Z,7.51
2023-04-11T02:50:18.560Z,7.49
2023-04-11T02:53:08.648Z,7.42
2023-04-11T02:55:57.966Z,7.46
2023-04-11T02:58:43.811Z,7.41
2023-04-11T03:01:33.573Z,7.43
2023-04-11T03:04:19.842Z,7.43
2023-04-11T03:07:24.085Z,7.43
2023-04-11T03:10:10.351Z,7.40
2023-04-11T03:12:56.202Z,7.42
2023-04-11T03:15:42.220Z,7.44
2023-04-11T03:18:29.921Z,7.41
2023-04-11T03:21:17.748Z,7.40
2023-04-11T03:24:04.761Z,7.32
2023-04-11T03:26:50.888Z,7.32
2023-04-11T03:29:37.735Z,7.32
2023-04-11T03:32:30.665Z,7.30
2023-04-11T03:35:18.774Z,7.27
2023-04-11T03:38:06.571Z,7.26
2023-04-11T03:40:52.479Z,7.27
2023-04-11T03:43:44.263Z,7.25
2023-04-11T03:46:30.165Z,7.23
2023-04-11T03:49:16.306Z,7.24
2023-04-11T03:52:09.747Z,7.20
2023-04-11T03:54:57.117Z,7.23
2023-04-11T03:57:44.859Z,7.24
2023-04-11T04:00:31.180Z,7.18
2023-04-11T04:03:24.795Z,7.25
2023-04-11T04:06:11.519Z,7.31
2023-04-11T04:08:59.754Z,7.34
2023-04-11T04:11:50.917Z,7.37
2023-04-11T04:14:42.595Z,7.37
2023-04-11T04:17:28.778Z,7.40
2023-04-11T04:20:14.828Z,7.42
2023-04-11T04:23:05.633Z,7.46
2023-04-11T04:26:07.116Z,7.46
2023-04-11T04:28:57.705Z,7.46
2023-04-11T04:31:53.199Z,7.46
2023-04-11T04:34:49.581Z,7.53
2023-04-11T04:37:47.268Z,7.59
2023-04-11T04:40:54.899Z,7.59
2023-04-11T04:43:43.152Z,7.62
2023-04-11T04:46:38.281Z,7.71
2023-04-11T04:49:25.946Z,7.75
2023-04-11T04:52:13.159Z,7.74
2023-04-11T04:54:59.542Z,7.83
2023-04-11T04:57:48.368Z,7.81
2023-04-11T05:00:35.048Z,7.85
2023-04-11T05:03:30.014Z,7.90
2023-04-11T05:06:19.943Z,7.94
2023-04-11T05:09:07.793Z,7.94
2023-04-11T05:11:54.314Z,8.01
2023-04-11T05:14:42.407Z,8.00
2023-04-11T05:17:29.665Z,8.03
2023-04-11T05:20:16.162Z,8.10
2023-04-11T05:23:05.125Z,8.13
2023-04-11T05:25:51.049Z,8.15
2023-04-11T05:28:37.632Z,8.24
2023-04-11T05:31:28.952Z,8.28
2023-04-11T05:34:14.958Z,8.29
2023-04-11T05:37:01.520Z,8.38
2023-04-11T05:39:47.762Z,8.40
2023-04-11T05:42:33.645Z,8.43
2023-04-11T05:45:19.531Z,8.47
2023-04-11T05:48:07.956Z,8.48
2023-04-11T05:50:54.139Z,8.55
2023-04-11T05:53:40.275Z,8.58
2023-04-11T05:56:27.295Z,8.65
2023-04-11T05:59:12.876Z,8.72
2023-04-11T06:01:59.507Z,8.76
2023-04-11T06:04:46.010Z,8.82
2023-04-11T06:07:33.020Z,8.80
2023-04-11T06:10:18.814Z,8.83
2023-04-11T06:13:04.559Z,8.84
2023-04-11T06:15:50.623Z,8.75
2023-04-11T06:18:36.450Z,8.90
2023-04-11T06:21:22.084Z,8.93
2023-04-11T06:24:11.455Z,9.03
2023-04-11T06:26:57.398Z,9.07
2023-04-11T06:29:43.702Z,9.12
2023-04-11T06:32:29.621Z,9.22
2023-04-11T06:35:15.331Z,9.20
2023-04-11T06:38:01.211Z,9.33
2023-04-11T06:40:46.997Z,9.38
2023-04-11T06:43:32.554Z,9.44
2023-04-11T06:46:18.297Z,9.47
2023-04-11T06:49:07.311Z,9.57
2023-04-11T06:51:54.675Z,9.65
2023-04-11T06:54:40.811Z,9.68
2023-04-11T06:57:26.750Z,9.67
2023-04-11T07:00:13.711Z,9.68
2023-04-11T07:03:01.166Z,9.73
2023-04-11T07:05:47.273Z,9.74
2023-04-11T07:08:33.883Z,9.82
2023-04-11T07:11:20.235Z,9.89
2023-04-11T07:14:06.211Z,9.96
2023-04-11T07:16:52.137Z,10.01
2023-04-11T07:19:37.887Z,10.06
2023-04-11T07:22:23.791Z,10.10
2023-04-11T07:25:10.565Z,10.15
2023-04-11T07:27:57.144Z,10.22
2023-04-11T07:30:43.066Z,10.25
2023-04-11T07:33:28.853Z,10.39
2023-04-11T07:36:14.663Z,10.51
2023-04-11T07:39:00.494Z,10.63
2023-04-11T07:41:46.244Z,10.69
2023-04-11T07:44:32.010Z,10.73
2023-04-11T07:47:17.723Z,10.78
2023-04-11T07:50:04.349Z,10.79
2023-04-11T07:52:51.456Z,10.90
2023-04-11T07:55:37.730Z,10.96
2023-04-11T07:58:23.314Z,11.00
2023-04-11T08:01:23.241Z,11.07
2023-04-11T08:04:09.461Z,11.13
2023-04-11T08:06:56.977Z,11.21
2023-04-11T08:09:43.019Z,11.26
2023-04-11T08:12:28.992Z,11.28
2023-04-11T08:15:14.583Z,11.30
2023-04-11T08:18:00.260Z,11.27
2023-04-11T08:20:45.856Z,11.18
2023-04-11T08:23:31.665Z,11.14
2023-04-11T08:26:18.107Z,11.11
2023-04-11T08:29:04.149Z,11.04
2023-04-11T08:31:50.091Z,11.01
2023-04-11T08:34:36.022Z,11.01
2023-04-11T08:37:21.771Z,11.02
2023-04-11T08:40:08.437Z,11.01
2023-04-11T08:43:00.896Z,11.06
2023-04-11T08:45:47.265Z,11.14
2023-04-11T08:48:33.457Z,11.23
2023-04-11T08:51:23.734Z,11.28
2023-04-11T08:54:10.145Z,11.38
2023-04-11T08:56:59.265Z,11.42
2023-04-11T08:59:53.942Z,11.51
2023-04-11T09:03:02.573Z,11.62
2023-04-11T09:05:48.769Z,11.74
2023-04-11T09:08:38.344Z,11.75
2023-04-11T09:11:24.986Z,11.76
2023-04-11T09:14:11.579Z,11.82
2023-04-11T09:17:01.949Z,11.93
2023-04-11T09:19:49.312Z,12.00
2023-04-11T09:22:36.476Z,12.09
2023-04-11T09:25:23.363Z,12.20
2023-04-11T09:28:10.979Z,12.34
2023-04-11T09:30:56.838Z,12.43
2023-04-11T09:33:59.339Z,12.55
2023-04-11T09:37:13.892Z,12.63
2023-04-11T09:40:00.075Z,12.69
2023-04-11T09:42:46.900Z,12.70
2023-04-11T09:45:40.865Z,12.78
2023-04-11T09:48:46.062Z,12.83
2023-04-11T09:51:37.013Z,12.86
2023-04-11T09:54:23.451Z,12.97
2023-04-11T09:57:10.699Z,13.01
2023-04-11T09:59:56.888Z,13.00
2023-04-11T10:02:45.085Z,13.06
2023-04-11T10:05:31.917Z,13.08
2023-04-11T10:08:28.279Z,13.04
2023-04-11T10:11:14.519Z,13.10
2023-04-11T10:14:00.373Z,13.16
2023-04-11T10:17:17.896Z,13.26
2023-04-11T10:20:44.920Z,13.36
2023-04-11T10:23:59.174Z,13.47
2023-04-11T10:27:04.905Z,13.62
2023-04-11T10:29:53.122Z,13.78
2023-04-11T10:32:41.494Z,13.96
2023-04-11T10:35:29.525Z,14.08
2023-04-11T10:38:37.313Z,14.26
2023-04-11T10:41:23.166Z,14.43
2023-04-11T10:44:23.307Z,14.62
2023-04-11T10:47:16.984Z,14.91
2023-04-11T10:50:03.531Z,15.23
2023-04-11T10:52:49.227Z,15.59
2023-04-11T10:55:55.456Z,15.93
2023-04-11T10:58:41.909Z,16.23
2023-04-11T11:01:36.962Z,16.34
2023-04-11T11:04:46.726Z,16.79
2023-04-11T11:07:33.512Z,17.11
2023-04-11T11:10:43.466Z,17.13
2023-04-11T11:13:45.615Z,17.23
2023-04-11T11:16:31.289Z,17.23
2023-04-11T11:19:17.141Z,17.05
2023-04-11T11:22:06.828Z,16.84
2023-04-11T11:24:52.803Z,16.52
2023-04-11T11:27:38.614Z,16.28
2023-04-11T11:30:24.421Z,15.95
2023-04-11T11:33:18.525Z,15.67
2023-04-11T11:36:05.813Z,15.40
2023-04-11T11:38:51.823Z,15.34
2023-04-11T11:41:38.935Z,15.32
2023-04-11T11:44:29.562Z,15.20
2023-04-11T11:47:16.785Z,15.07
2023-04-11T11:50:02.911Z,14.99
2023-04-11T11:52:48.905Z,14.96
2023-04-11T11:55:35.089Z,14.96
2023-04-11T11:58:21.529Z,15.04
2023-04-11T12:01:07.439Z,15.16
2023-04-11T12:03:54.077Z,15.30
2023-04-11T12:06:40.000Z,15.48
2023-04-11T12:09:31.332Z,15.60
2023-04-11T12:12:17.481Z,15.61
2023-04-11T12:15:10.054Z,15.57
2023-04-11T12:17:56.218Z,15.56
2023-04-11T12:20:42.242Z,15.45
2023-04-11T12:23:27.924Z,15.35
2023-04-11T12:26:14.131Z,15.24
2023-04-11T12:29:12.020Z,15.11
2023-04-11T12:31:57.804Z,14.90
2023-04-11T12:34:43.661Z,14.69
2023-04-11T12:37:29.526Z,14.52
2023-04-11T12:40:15.583Z,14.51
2023-04-11T12:43:01.666Z,14.48
2023-04-11T12:45:47.400Z,14.55
2023-04-11T12:48:33.643Z,14.71
2023-04-11T12:51:19.330Z,14.96
2023-04-11T12:54:05.164Z,15.28
2023-04-11T12:56:52.646Z,15.73
2023-04-11T12:59:38.762Z,16.49
2023-04-11T13:02:25.056Z,17.22
2023-04-11T13:05:13.927Z,17.69
2023-04-11T13:08:00.035Z,17.85
2023-04-11T13:10:45.795Z,17.90
2023-04-11T13:13:31.536Z,18.23
2023-04-11T13:16:17.376Z,18.47
2023-04-11T13:19:03.576Z,18.35
2023-04-11T13:21:49.867Z,18.07
2023-04-11T13:24:35.835Z,17.68
2023-04-11T13:27:22.192Z,17.29
2023-04-11T13:30:10.021Z,16.93
2023-04-11T13:32:55.978Z,16.60
2023-04-11T13:35:41.896Z,16.27
2023-04-11T13:38:27.693Z,15.94
2023-04-11T13:41:14.781Z,15.67
2023-04-11T13:44:00.839Z,15.45
2023-04-11T13:46:47.103Z,15.30
2023-04-11T13:49:33.123Z,15.32
2023-04-11T13:52:18.984Z,15.52
2023-04-11T13:55:08.313Z,15.79
2023-04-11T13:57:55.092Z,16.26
2023-04-11T14:00:41.000Z,16.36
2023-04-11T14:03:30.218Z,16.30
2023-04-11T14:06:16.693Z,16.19
2023-04-11T14:09:04.713Z,16.08
2023-04-11T14:11:50.408Z,15.97
2023-04-11T14:14:36.110Z,15.92
2023-04-11T14:17:22.405Z,15.86
2023-04-11T14:20:09.402Z,15.76
2023-04-11T14:22:56.431Z,15.69
2023-04-11T14:25:43.024Z,15.53
2023-04-11T14:28:29.067Z,15.47
2023-04-11T14:31:15.637Z,15.41
2023-04-11T14:34:01.910Z,15.61
2023-04-11T14:36:47.929Z,16.32
2023-04-11T14:39:34.068Z,17.38
2023-04-11T14:42:19.984Z,18.34
2023-04-11T14:45:06.594Z,18.78
2023-04-11T14:47:52.635Z,18.78
2023-04-11T14:50:38.727Z,18.51
2023-04-11T14:53:25.516Z,18.15
2023-04-11T14:56:11.206Z,17.77
2023-04-11T14:58:56.921Z,17.47
2023-04-11T15:01:43.338Z,17.17
2023-04-11T15:04:29.246Z,17.24
2023-04-11T15:07:15.314Z,17.43
2023-04-11T15:10:01.404Z,17.78
2023-04-11T15:12:47.835Z,17.97
2023-04-11T15:15:33.865Z,18.23
2023-04-11T15:18:19.861Z,18.47
2023-04-11T15:21:06.502Z,18.36
2023-04-11T15:23:57.104Z,18.13
2023-04-11T15:26:45.364Z,17.79
2023-04-11T15:29:31.911Z,17.45
2023-04-11T15:32:17.779Z,17.15
2023-04-11T15:35:03.546Z,16.84
2023-04-11T15:37:50.045Z,16.58
2023-04-11T15:40:36.163Z,16.28
2023-04-11T15:43:23.333Z,15.97
2023-04-11T15:46:09.301Z,15.69
2023-04-11T15:48:55.098Z,15.52
2023-04-11T15:51:41.237Z,15.37
2023-04-11T15:54:27.437Z,15.22
2023-04-11T15:57:20.881Z,15.08
2023-04-11T16:00:10.057Z,14.94
2023-04-11T16:03:02.803Z,14.81
2023-04-11T16:06:05.924Z,14.67
2023-04-11T16:08:52.224Z,14.57
2023-04-11T16:11:40.484Z,14.45
2023-04-11T16:14:27.129Z,14.38
2023-04-11T16:17:15.529Z,14.31
2023-04-11T16:20:01.740Z,14.26
2023-04-11T16:22:47.874Z,14.22
2023-04-11T16:25:34.619Z,14.14
2023-04-11T16:28:21.164Z,14.11
2023-04-11T16:31:07.296Z,14.05
2023-04-11T16:33:54.140Z,14.02
2023-04-11T16:36:40.745Z,13.95
2023-04-11T16:39:26.508Z,13.87
2023-04-11T16:42:12.246Z,13.83
2023-04-11T16:44:58.068Z,13.83
2023-04-11T16:47:44.001Z,13.79
2023-04-11T16:50:29.827Z,13.77
2023-04-11T16:53:17.491Z,13.73
2023-04-11T16:56:03.369Z,13.70
2023-04-11T16:58:49.088Z,13.67
2023-04-11T17:01:34.768Z,13.61
2023-04-11T17:09:30.585Z,13.34
2023-04-11T17:12:16.665Z,13.25
2023-04-11T17:15:02.673Z,13.17
2023-04-11T17:17:48.670Z,13.14
2023-04-11T17:20:34.468Z,13.08
2023-04-11T17:23:31.951Z,13.00
2023-04-11T17:26:37.603Z,12.91
2023-04-11T17:29:27.892Z,12.88
2023-04-11T17:32:52.021Z,12.81
2023-04-11T17:35:38.287Z,12.77
2023-04-11T17:38:24.541Z,12.68
2023-04-11T17:41:15.101Z,12.69
2023-04-11T17:44:01.736Z,12.64
2023-04-11T17:46:47.718Z,12.66
2023-04-11T17:49:34.433Z,12.67
2023-04-11T17:52:20.251Z,12.66
2023-04-11T17:55:10.679Z,12.67
2023-04-11T17:57:59.367Z,12.63
2023-04-11T18:00:56.147Z,12.64
2023-04-11T18:04:57.718Z,12.58
2023-04-11T18:07:45.397Z,12.52
2023-04-11T18:10:31.971Z,12.47
2023-04-11T18:13:18.285Z,12.47
2023-04-11T18:16:04.446Z,12.45
2023-04-11T18:18:53.968Z,12.43
2023-04-11T18:21:39.976Z,12.40
2023-04-11T18:24:26.407Z,12.37
2023-04-11T18:27:16.385Z,12.35
2023-04-11T18:30:09.036Z,12.36
2023-04-11T18:32:55.230Z,12.31
2023-04-11T18:35:41.739Z,12.35
2023-04-11T18:38:27.592Z,12.31
2023-04-11T18:41:13.935Z,12.27
2023-04-11T18:44:01.309Z,12.25
2023-04-11T18:46:49.837Z,12.22
2023-04-11T18:49:36.934Z,12.21
2023-04-11T18:52:23.056Z,12.13
2023-04-11T18:55:10.343Z,12.15
2023-04-11T18:58:07.676Z,12.03
2023-04-11T19:01:28.831Z,11.99
2023-04-11T19:04:15.491Z,11.93
2023-04-11T19:07:01.643Z,11.87
2023-04-11T19:09:49.547Z,11.81
2023-04-11T19:12:35.883Z,11.79
2023-04-11T19:15:21.790Z,11.74
2023-04-11T19:18:07.654Z,11.75
2023-04-11T19:20:54.718Z,11.66
2023-04-11T19:23:40.438Z,11.67
2023-04-11T19:26:31.669Z,11.64
2023-04-11T19:29:17.577Z,11.59
2023-04-11T19:32:06.466Z,11.52
2023-04-11T19:34:52.903Z,11.47
2023-04-11T19:37:39.227Z,11.48
2023-04-11T19:40:28.825Z,11.41
2023-04-11T19:43:15.002Z,11.40
2023-04-11T19:46:01.871Z,11.35
2023-04-11T19:48:48.082Z,11.25
2023-04-11T19:51:33.608Z,11.20
2023-04-11T19:54:19.350Z,11.20
2023-04-11T19:57:41.200Z,11.08
2023-04-11T20:00:37.664Z,11.12
2023-04-11T20:03:23.695Z,11.05
2023-04-11T20:06:12.598Z,11.02
2023-04-11T20:08:58.429Z,11.01
2023-04-11T20:11:52.902Z,10.85
2023-04-11T20:15:03.736Z,10.89
2023-04-11T20:17:49.717Z,10.82
2023-04-11T20:20:36.954Z,10.83
2023-04-11T20:23:22.748Z,10.78
2023-04-11T20:26:08.913Z,10.76
2023-04-11T20:28:58.554Z,10.72
2023-04-11T20:31:44.823Z,10.65
2023-04-11T20:34:32.714Z,10.57
2023-04-11T20:37:31.568Z,10.51
2023-04-11T20:40:33.270Z,10.50
2023-04-11T20:43:44.941Z,10.50
2023-04-11T20:46:39.906Z,10.49
2023-04-11T20:49:28.267Z,10.50
2023-04-11T20:52:14.308Z,10.48
2023-04-11T20:55:00.457Z,10.48
2023-04-11T20:57:53.108Z,10.51
2023-04-11T21:00:39.950Z,10.50
2023-04-11T21:03:31.301Z,10.45
2023-04-11T21:06:17.397Z,10.46
2023-04-11T21:09:04.403Z,10.43
2023-04-11T21:11:50.477Z,10.41
2023-04-11T21:14:36.575Z,10.39
2023-04-11T21:17:22.751Z,10.38
2023-04-11T21:20:10.336Z,10.34
2023-04-11T21:22:56.063Z,10.34
2023-04-11T21:25:46.759Z,10.33
2023-04-11T21:28:32.841Z,10.30
2023-04-11T21:31:18.467Z,10.26
2023-04-11T21:34:04.330Z,10.20
2023-04-11T21:36:51.085Z,10.25
2023-04-11T21:39:37.113Z,10.19
2023-04-11T21:42:22.906Z,10.21
2023-04-11T21:45:08.836Z,10.17
2023-04-11T21:47:54.772Z,10.21
2023-04-11T21:50:40.800Z,10.16
2023-04-11T21:53:26.626Z,10.13
2023-04-11T21:56:12.616Z,10.09
2023-04-11T21:58:58.686Z,10.05
2023-04-11T22:01:44.411Z,10.08
2023-04-11T22:04:37.232Z,10.08
2023-04-11T22:07:31.656Z,10.06
2023-04-11T22:10:22.908Z,10.05
2023-04-11T22:13:09.719Z,10.03
2023-04-11T22:16:05.867Z,10.03
2023-04-11T22:18:55.323Z,9.99
2023-04-11T22:21:41.368Z,9.97
2023-04-11T22:24:31.095Z,9.91
2023-04-11T22:27:18.339Z,9.90
2023-04-11T22:30:05.320Z,9.87
2023-04-11T22:32:52.257Z,9.83
2023-04-11T22:35:39.646Z,9.83
2023-04-11T22:38:25.869Z,9.81
2023-04-11T22:41:16.427Z,9.78
2023-04-11T22:44:02.798Z,9.78
2023-04-11T22:47:06.970Z,9.74
2023-04-11T22:49:53.344Z,9.68
2023-04-11T22:52:42.130Z,9.72
2023-04-11T22:55:29.623Z,9.70
2023-04-11T22:58:15.716Z,9.71
2023-04-11T23:01:01.829Z,9.47
2023-04-11T23:03:47.578Z,9.71
2023-04-11T23:06:33.584Z,9.70
2023-04-11T23:09:22.493Z,9.69
2023-04-11T23:12:09.245Z,9.68
2023-04-11T23:14:55.331Z,9.66
2023-04-11T23:17:41.653Z,9.57
2023-04-11T23:20:27.688Z,9.68
2023-04-11T23:23:13.566Z,9.59
2023-04-11T23:26:02.629Z,9.62
2023-04-11T23:28:48.843Z,9.53
2023-04-11T23:31:34.630Z,9.50
2023-04-11T23:34:21.102Z,9.48
2023-04-11T23:37:07.838Z,9.53
2023-04-11T23:39:54.539Z,9.49
2023-04-11T23:42:41.257Z,9.43
2023-04-11T23:45:27.325Z,9.43
2023-04-11T23:48:13.687Z,9.37
2023-04-11T23:50:59.545Z,9.36
2023-04-11T23:53:45.994Z,9.24
2023-04-11T23:56:32.445Z,9.20
2023-04-11T23:59:18.458Z,9.21
